Bath, United Kingdom
Current Conditions -  °F | °C
As of 3:50 PM on Friday 24 Oct 2014 (Local Time) from EGGD Reporting Station
Drizzle Drizzle  
Wind Chill: 57°   Ceiling: 200
Heat Index: 57°   Visibility: 4mi
Dew Point: 55°   Wind: 16mph
Humidity: 94%   Direction: 260°W
Pressure: 29.88"   Gusts: NA
Location:  51.38°N, 2.36°W
Report Text: EGGD 241450Z 26014KT 6000 -DZ FEW001 BKN002 14/13 Q1012
Loading
Personal Weather Stations






























Interactive Weather Map
Tropical Storm Tracking
New forecast layout! Learn more

10-Day Weather Forecast

Advertisements
Track Severe Weather on mobile